createdAt,value
2019-03-30T00:00:19.494Z,0.00
2019-03-30T00:01:19.426Z,0.00
2019-03-30T00:02:19.423Z,0.00
2019-03-30T00:03:19.412Z,0.00
2019-03-30T00:04:19.395Z,0.00
2019-03-30T00:05:19.384Z,0.00
2019-03-30T00:06:19.406Z,0.00
2019-03-30T00:07:19.362Z,0.00
2019-03-30T00:08:19.362Z,0.00
2019-03-30T00:09:19.354Z,0.00
2019-03-30T00:10:19.361Z,0.00
2019-03-30T00:11:19.330Z,0.00
2019-03-30T00:12:19.333Z,0.00
2019-03-30T00:13:19.324Z,0.00
2019-03-30T00:14:19.288Z,0.00
2019-03-30T00:15:19.283Z,0.00
2019-03-30T00:16:19.265Z,0.00
2019-03-30T00:17:19.307Z,0.00
2019-03-30T00:18:19.241Z,0.00
2019-03-30T00:19:19.241Z,0.00
2019-03-30T00:20:19.247Z,0.00
2019-03-30T00:21:19.218Z,0.00
2019-03-30T00:22:19.196Z,0.00
2019-03-30T00:23:19.211Z,0.00
2019-03-30T00:24:19.198Z,0.00
2019-03-30T00:25:19.181Z,0.00
2019-03-30T00:26:19.149Z,0.00
2019-03-30T00:27:19.154Z,0.00
2019-03-30T00:28:19.171Z,0.00
2019-03-30T00:29:19.146Z,0.00
2019-03-30T00:30:19.462Z,0.00
2019-03-30T00:31:19.095Z,0.00
2019-03-30T00:32:19.092Z,0.00
2019-03-30T00:33:19.125Z,0.00
2019-03-30T00:34:19.070Z,0.00
2019-03-30T00:35:19.058Z,0.00
2019-03-30T00:36:19.046Z,0.00
2019-03-30T00:37:19.031Z,0.00
2019-03-30T00:38:19.052Z,0.00
2019-03-30T00:39:19.008Z,0.00
2019-03-30T00:40:19.001Z,0.00
2019-03-30T00:41:19.007Z,0.00
2019-03-30T00:42:18.980Z,0.00
2019-03-30T00:43:18.970Z,0.00
2019-03-30T00:44:18.948Z,0.00
2019-03-30T00:45:18.967Z,0.00
2019-03-30T00:46:18.967Z,0.00
2019-03-30T00:47:18.928Z,0.00
2019-03-30T00:48:18.914Z,0.00
2019-03-30T00:49:18.911Z,0.00
2019-03-30T00:50:18.893Z,0.00
2019-03-30T00:51:18.871Z,0.00
2019-03-30T00:52:18.892Z,0.00
2019-03-30T00:53:18.856Z,0.00
2019-03-30T00:54:18.841Z,0.00
2019-03-30T00:55:18.836Z,0.00
2019-03-30T00:56:18.836Z,0.00
2019-03-30T00:57:18.807Z,0.00
2019-03-30T00:58:18.794Z,0.00
2019-03-30T00:59:18.812Z,0.00
2019-03-30T01:00:18.777Z,0.00
2019-03-30T01:01:18.771Z,0.00
2019-03-30T01:02:18.752Z,0.00
2019-03-30T01:03:18.742Z,0.00
2019-03-30T01:04:18.752Z,0.00
2019-03-30T01:05:18.728Z,0.00
2019-03-30T01:06:18.711Z,0.00
2019-03-30T01:07:18.725Z,0.00
2019-03-30T01:08:18.682Z,0.00
2019-03-30T01:09:18.698Z,0.00
2019-03-30T01:10:18.676Z,0.00
2019-03-30T01:11:18.654Z,0.00
2019-03-30T01:12:18.639Z,0.00
2019-03-30T01:13:18.654Z,0.00
2019-03-30T01:14:18.642Z,0.00
2019-03-30T01:15:18.627Z,0.00
2019-03-30T01:16:18.596Z,0.00
2019-03-30T01:17:18.586Z,0.00
2019-03-30T01:18:18.573Z,0.00
2019-03-30T01:19:18.608Z,0.00
2019-03-30T01:20:18.561Z,0.00
2019-03-30T01:21:18.538Z,0.00
2019-03-30T01:22:18.522Z,0.00
2019-03-30T01:23:18.516Z,0.00
2019-03-30T01:24:18.510Z,0.00
2019-03-30T01:25:18.519Z,0.00
2019-03-30T01:26:18.478Z,0.00
2019-03-30T01:27:18.475Z,0.00
2019-03-30T01:28:18.456Z,0.00
2019-03-30T01:29:18.444Z,0.00
2019-03-30T01:30:23.414Z,0.00
2019-03-30T01:31:19.424Z,0.00
2019-03-30T01:32:18.424Z,0.00
2019-03-30T01:33:18.408Z,0.00
2019-03-30T01:34:18.406Z,0.00
2019-03-30T01:35:18.443Z,0.00
2019-03-30T01:36:18.369Z,0.00
2019-03-30T01:37:18.383Z,0.00
2019-03-30T01:38:18.348Z,0.00
2019-03-30T01:39:18.368Z,0.00
2019-03-30T01:40:18.321Z,0.00
2019-03-30T01:41:18.311Z,0.00
2019-03-30T01:42:18.314Z,0.00
2019-03-30T01:43:18.283Z,0.00
2019-03-30T01:44:18.292Z,0.00
2019-03-30T01:45:18.258Z,0.00
2019-03-30T01:46:18.253Z,0.00
2019-03-30T01:47:18.246Z,0.00
2019-03-30T01:48:18.224Z,0.00
2019-03-30T01:49:18.230Z,0.00
2019-03-30T01:50:18.290Z,0.00
2019-03-30T01:51:18.189Z,0.00
2019-03-30T01:52:18.186Z,0.00
2019-03-30T01:53:18.171Z,0.00
2019-03-30T01:54:18.188Z,0.00
2019-03-30T01:55:18.150Z,0.00
2019-03-30T01:56:18.133Z,0.00
2019-03-30T01:57:18.128Z,0.00
2019-03-30T01:58:18.109Z,0.00
2019-03-30T01:59:18.122Z,0.00
2019-03-30T02:00:18.088Z,0.00
2019-03-30T02:01:18.078Z,0.00
2019-03-30T02:02:18.069Z,0.00
2019-03-30T02:03:18.058Z,0.00
2019-03-30T02:04:18.081Z,0.00
2019-03-30T02:05:18.038Z,0.00
2019-03-30T02:06:18.021Z,0.00
2019-03-30T02:07:18.010Z,0.00
2019-03-30T02:08:17.998Z,0.00
2019-03-30T02:09:17.986Z,0.00
2019-03-30T02:10:18.012Z,0.00
2019-03-30T02:11:17.973Z,0.00
2019-03-30T02:12:17.972Z,0.00
2019-03-30T02:13:17.948Z,0.00
2019-03-30T02:14:17.954Z,0.00
2019-03-30T02:15:17.928Z,0.00
2019-03-30T02:16:17.919Z,0.00
2019-03-30T02:17:20.179Z,0.00
2019-03-30T02:18:17.900Z,0.00
2019-03-30T02:19:17.907Z,0.00
2019-03-30T02:20:30.423Z,0.00
2019-03-30T02:21:18.863Z,0.00
2019-03-30T02:22:17.849Z,0.00
2019-03-30T02:23:17.888Z,0.00
2019-03-30T02:24:17.825Z,0.00
2019-03-30T02:25:17.824Z,0.00
2019-03-30T02:26:17.811Z,0.00
2019-03-30T02:27:17.799Z,0.00
2019-03-30T02:28:17.788Z,0.00
2019-03-30T02:29:17.800Z,0.00
2019-03-30T02:30:17.761Z,0.00
2019-03-30T02:31:17.748Z,0.00
2019-03-30T02:32:17.750Z,0.00
2019-03-30T02:33:17.734Z,0.00
2019-03-30T02:34:17.743Z,0.00
2019-03-30T02:35:17.726Z,0.00
2019-03-30T02:36:17.694Z,0.00
2019-03-30T02:37:17.698Z,0.00
2019-03-30T02:38:17.684Z,0.00
2019-03-30T02:39:17.663Z,0.00
2019-03-30T02:40:17.867Z,0.00
2019-03-30T02:41:17.650Z,0.00
2019-03-30T02:42:17.633Z,0.00
2019-03-30T02:43:17.622Z,0.00
2019-03-30T02:44:17.615Z,0.00
2019-03-30T02:45:17.604Z,0.00
2019-03-30T02:46:17.615Z,0.00
2019-03-30T02:47:17.578Z,0.00
2019-03-30T02:48:17.568Z,0.00
2019-03-30T02:49:17.571Z,0.00
2019-03-30T02:50:17.547Z,0.00
2019-03-30T02:51:17.539Z,0.00
2019-03-30T02:52:17.570Z,0.00
2019-03-30T02:53:17.544Z,0.00
2019-03-30T02:54:17.507Z,0.00
2019-03-30T02:55:17.510Z,0.00
2019-03-30T02:56:17.491Z,0.00
2019-03-30T02:57:17.471Z,0.00
2019-03-30T02:58:17.460Z,0.00
2019-03-30T02:59:17.462Z,0.00
2019-03-30T03:01:33.647Z,0.00
2019-03-30T03:02:33.611Z,0.00
2019-03-30T03:03:33.599Z,0.00
2019-03-30T03:04:33.592Z,0.00
2019-03-30T03:05:33.638Z,0.00
2019-03-30T03:06:33.582Z,0.00
2019-03-30T03:07:33.578Z,0.00
2019-03-30T03:08:33.555Z,0.00
2019-03-30T03:09:33.542Z,0.00
2019-03-30T03:10:33.549Z,0.00
2019-03-30T03:11:33.543Z,0.00
2019-03-30T03:12:33.560Z,0.00
2019-03-30T03:13:33.524Z,0.00
2019-03-30T03:14:33.524Z,0.00
2019-03-30T03:15:33.475Z,0.00
2019-03-30T03:16:33.467Z,0.00
2019-03-30T03:17:33.453Z,0.00
2019-03-30T03:18:33.454Z,0.00
2019-03-30T03:19:33.432Z,0.00
2019-03-30T03:20:33.438Z,0.00
2019-03-30T03:21:33.406Z,0.00
2019-03-30T03:22:33.400Z,0.00
2019-03-30T03:23:33.397Z,0.00
2019-03-30T03:24:33.386Z,0.00
2019-03-30T03:25:33.388Z,0.00
2019-03-30T03:26:33.368Z,0.00
2019-03-30T03:27:33.343Z,0.00
2019-03-30T03:28:33.340Z,0.00
2019-03-30T03:29:33.323Z,0.00
2019-03-30T03:30:33.358Z,0.00
2019-03-30T03:31:33.303Z,0.00
2019-03-30T03:32:33.292Z,0.00
2019-03-30T03:33:33.283Z,0.00
2019-03-30T03:34:33.268Z,0.00
2019-03-30T03:35:33.302Z,0.00
2019-03-30T03:36:33.258Z,0.00
2019-03-30T03:37:44.908Z,0.00
2019-03-30T03:38:34.232Z,0.00
2019-03-30T03:39:33.219Z,0.00
2019-03-30T03:40:33.235Z,0.00
2019-03-30T03:41:33.215Z,0.00
2019-03-30T03:42:33.185Z,0.00
2019-03-30T03:43:33.169Z,0.00
2019-03-30T03:44:33.167Z,0.00
2019-03-30T03:45:33.186Z,0.00
2019-03-30T03:46:33.146Z,0.00
2019-03-30T03:47:33.131Z,0.00
2019-03-30T03:48:33.132Z,0.00
2019-03-30T03:49:33.113Z,0.00
2019-03-30T03:50:33.096Z,0.00
2019-03-30T03:51:33.107Z,0.00
2019-03-30T03:52:33.079Z,0.00
2019-03-30T03:53:33.064Z,0.00
2019-03-30T03:54:33.068Z,0.00
2019-03-30T03:55:33.078Z,0.00
2019-03-30T03:56:33.040Z,0.00
2019-03-30T03:57:33.017Z,0.00
2019-03-30T03:58:33.012Z,0.00
2019-03-30T03:59:32.999Z,0.00
2019-03-30T04:00:33.012Z,0.00
2019-03-30T04:01:32.993Z,0.00
2019-03-30T04:02:32.972Z,0.00
2019-03-30T04:03:32.962Z,0.00
2019-03-30T04:04:32.968Z,0.00
2019-03-30T04:05:32.967Z,0.00
2019-03-30T04:06:32.930Z,0.00
2019-03-30T04:07:32.917Z,0.00
2019-03-30T04:08:32.902Z,0.00
2019-03-30T04:09:32.889Z,0.00
2019-03-30T04:10:32.907Z,0.00
2019-03-30T04:11:32.870Z,0.00
2019-03-30T04:12:32.854Z,0.00
2019-03-30T04:13:32.947Z,0.00
2019-03-30T04:14:32.849Z,0.00
2019-03-30T04:15:32.855Z,0.00
2019-03-30T04:16:32.837Z,0.00
2019-03-30T04:17:32.906Z,0.00
2019-03-30T04:18:32.821Z,0.00
2019-03-30T04:19:32.788Z,0.00
2019-03-30T04:20:32.804Z,0.00
2019-03-30T04:21:43.636Z,0.00
2019-03-30T04:22:33.757Z,0.00
2019-03-30T04:23:32.744Z,0.00
2019-03-30T04:24:32.730Z,0.00
2019-03-30T04:25:32.774Z,0.00
2019-03-30T04:26:32.710Z,0.00
2019-03-30T04:27:32.704Z,0.00
2019-03-30T04:28:32.683Z,0.00
2019-03-30T04:29:32.678Z,0.00
2019-03-30T04:30:32.681Z,0.00
2019-03-30T04:31:34.316Z,0.00
2019-03-30T04:32:32.644Z,0.00
2019-03-30T04:33:32.636Z,0.00
2019-03-30T04:34:32.638Z,0.00
2019-03-30T04:35:32.614Z,0.00
2019-03-30T04:36:32.622Z,0.00
2019-03-30T04:37:32.627Z,0.00
2019-03-30T04:38:32.576Z,0.00
2019-03-30T04:39:32.577Z,0.00
2019-03-30T04:40:32.553Z,0.00
2019-03-30T04:41:32.543Z,0.00
2019-03-30T04:42:32.541Z,0.00
2019-03-30T04:43:32.543Z,0.00
2019-03-30T04:44:32.512Z,0.00
2019-03-30T04:45:32.529Z,0.00
2019-03-30T04:46:32.489Z,0.00
2019-03-30T04:47:32.482Z,0.00
2019-03-30T04:48:32.482Z,0.00
2019-03-30T04:49:32.459Z,0.00
2019-03-30T04:50:32.490Z,0.00
2019-03-30T04:51:32.450Z,0.00
2019-03-30T04:52:32.424Z,0.00
2019-03-30T04:53:32.415Z,0.00
2019-03-30T04:54:32.403Z,0.00
2019-03-30T04:55:32.432Z,0.00
2019-03-30T04:56:32.391Z,0.00
2019-03-30T04:57:32.400Z,0.00
2019-03-30T04:58:32.362Z,0.00
2019-03-30T04:59:32.411Z,0.00
2019-03-30T05:00:32.343Z,0.00
2019-03-30T05:01:32.332Z,0.00
2019-03-30T05:02:32.332Z,0.00
2019-03-30T05:03:32.313Z,0.00
2019-03-30T05:04:32.325Z,0.00
2019-03-30T05:05:32.318Z,0.00
2019-03-30T05:06:32.283Z,0.00
2019-03-30T05:07:32.268Z,0.00
2019-03-30T05:08:32.258Z,0.00
2019-03-30T05:09:32.249Z,0.00
2019-03-30T05:10:32.276Z,0.00
2019-03-30T05:11:32.260Z,0.00
2019-03-30T05:12:32.218Z,0.00
2019-03-30T05:13:32.206Z,0.00
2019-03-30T05:14:32.192Z,0.00
2019-03-30T05:15:32.211Z,0.00
2019-03-30T05:16:32.173Z,0.00
2019-03-30T05:17:46.294Z,0.00
2019-03-30T05:18:33.175Z,0.00
2019-03-30T05:19:32.164Z,0.00
2019-03-30T05:20:32.132Z,0.00
2019-03-30T05:21:32.133Z,5.62
2019-03-30T05:22:32.101Z,5.62
2019-03-30T05:23:32.109Z,5.62
2019-03-30T05:24:32.083Z,5.62
2019-03-30T05:25:32.073Z,5.62
2019-03-30T05:26:32.133Z,5.62
2019-03-30T05:27:32.058Z,5.62
2019-03-30T05:28:32.052Z,5.62
2019-03-30T05:29:32.031Z,5.62
2019-03-30T05:30:32.014Z,5.62
2019-03-30T05:31:32.021Z,5.62
2019-03-30T05:32:32.019Z,11.25
2019-03-30T05:33:31.980Z,11.25
2019-03-30T05:34:31.991Z,11.25
2019-03-30T05:35:31.959Z,11.25
2019-03-30T05:36:31.975Z,11.25
2019-03-30T05:37:31.957Z,11.25
2019-03-30T05:38:31.950Z,11.25
2019-03-30T05:39:31.918Z,11.25
2019-03-30T05:40:31.914Z,11.25
2019-03-30T05:41:31.920Z,11.25
2019-03-30T05:42:31.887Z,16.88
2019-03-30T05:43:31.874Z,16.88
2019-03-30T05:44:31.892Z,16.88
2019-03-30T05:45:31.856Z,16.88
2019-03-30T05:46:31.860Z,16.88
2019-03-30T05:47:31.842Z,16.88
2019-03-30T05:48:31.828Z,16.88
2019-03-30T05:49:31.821Z,22.50
2019-03-30T05:50:31.819Z,22.50
2019-03-30T05:51:31.810Z,22.50
2019-03-30T05:52:31.799Z,22.50
2019-03-30T05:53:31.772Z,22.50
2019-03-30T05:54:31.763Z,22.50
2019-03-30T05:55:31.747Z,22.50
2019-03-30T05:56:31.770Z,22.50
2019-03-30T05:57:31.733Z,28.12
2019-03-30T05:58:31.716Z,28.12
2019-03-30T05:59:31.705Z,28.12
2019-03-30T06:00:31.702Z,28.12
2019-03-30T06:01:31.706Z,28.12
2019-03-30T06:02:31.673Z,28.12
2019-03-30T06:03:31.667Z,28.12
2019-03-30T06:04:31.687Z,28.12
2019-03-30T06:05:31.643Z,28.12
2019-03-30T06:06:31.649Z,28.12
2019-03-30T06:07:31.617Z,28.12
2019-03-30T06:08:31.617Z,28.12
2019-03-30T06:09:31.601Z,28.12
2019-03-30T06:10:31.589Z,33.75
2019-03-30T06:11:31.623Z,33.75
2019-03-30T06:12:31.566Z,33.75
2019-03-30T06:13:31.557Z,33.75
2019-03-30T06:14:31.550Z,33.75
2019-03-30T06:15:31.533Z,33.75
2019-03-30T06:16:31.544Z,33.75
2019-03-30T06:17:31.542Z,33.75
2019-03-30T06:18:31.500Z,33.75
2019-03-30T06:19:31.503Z,33.75
2019-03-30T06:20:31.481Z,33.75
2019-03-30T06:21:31.496Z,33.75
2019-03-30T06:22:40.143Z,33.75
2019-03-30T06:23:32.445Z,33.75
2019-03-30T06:24:31.450Z,33.75
2019-03-30T06:25:31.426Z,33.75
2019-03-30T06:26:31.442Z,33.75
2019-03-30T06:27:31.408Z,39.38
2019-03-30T06:28:31.435Z,39.38
2019-03-30T06:29:31.389Z,39.38
2019-03-30T06:30:31.376Z,39.38
2019-03-30T06:31:31.371Z,39.38
2019-03-30T06:32:31.381Z,39.38
2019-03-30T06:33:31.367Z,39.38
2019-03-30T06:34:31.344Z,39.38
2019-03-30T06:35:31.321Z,39.38
2019-03-30T06:36:31.347Z,39.38
2019-03-30T06:37:31.301Z,39.38
2019-03-30T06:38:31.291Z,39.38
2019-03-30T06:39:31.288Z,39.38
2019-03-30T06:40:31.264Z,39.38
2019-03-30T06:41:31.258Z,39.38
2019-03-30T06:42:31.268Z,39.38
2019-03-30T06:43:31.237Z,39.38
2019-03-30T06:44:31.223Z,39.38
2019-03-30T06:45:31.208Z,39.38
2019-03-30T06:46:31.228Z,39.38
2019-03-30T06:47:31.186Z,39.38
2019-03-30T06:48:31.174Z,39.38
2019-03-30T06:49:31.179Z,39.38
2019-03-30T06:50:31.151Z,39.38
2019-03-30T06:51:31.290Z,45.00
2019-03-30T06:52:31.133Z,45.00
2019-03-30T06:53:31.119Z,45.00
2019-03-30T06:54:31.108Z,45.00
2019-03-30T06:55:31.104Z,45.00
2019-03-30T06:56:31.115Z,45.00
2019-03-30T06:57:31.080Z,45.00
2019-03-30T06:58:31.069Z,45.00
2019-03-30T06:59:31.057Z,45.00
2019-03-30T07:00:31.041Z,45.00
2019-03-30T07:01:31.056Z,45.00
2019-03-30T07:02:31.022Z,45.00
2019-03-30T07:03:31.084Z,45.00
2019-03-30T07:04:31.004Z,45.00
2019-03-30T07:05:30.992Z,45.00
2019-03-30T07:06:31.004Z,45.00
2019-03-30T07:07:30.966Z,45.00
2019-03-30T07:08:30.976Z,45.00
2019-03-30T07:09:30.945Z,45.00
2019-03-30T07:10:30.932Z,45.00
2019-03-30T07:11:30.960Z,45.00
2019-03-30T07:12:30.914Z,45.00
2019-03-30T07:13:30.900Z,45.00
2019-03-30T07:14:30.893Z,45.00
2019-03-30T07:15:30.878Z,45.00
2019-03-30T07:16:30.899Z,45.00
2019-03-30T07:17:30.863Z,45.00
2019-03-30T07:18:30.844Z,45.00
2019-03-30T07:19:30.835Z,50.62
2019-03-30T07:20:30.824Z,50.62
2019-03-30T07:21:30.843Z,50.62
2019-03-30T07:22:30.811Z,50.62
2019-03-30T07:23:30.795Z,50.62
2019-03-30T07:24:30.812Z,50.62
2019-03-30T07:25:30.766Z,50.62
2019-03-30T07:26:30.761Z,50.62
2019-03-30T07:27:30.759Z,50.62
2019-03-30T07:28:30.738Z,50.62
2019-03-30T07:29:30.735Z,50.62
2019-03-30T07:30:30.738Z,50.62
2019-03-30T07:31:30.707Z,50.62
2019-03-30T07:32:30.697Z,50.62
2019-03-30T07:33:30.682Z,50.62
2019-03-30T07:34:30.695Z,50.62
2019-03-30T07:35:30.672Z,50.62
2019-03-30T07:36:30.676Z,50.62
2019-03-30T07:37:30.662Z,50.62
2019-03-30T07:38:30.629Z,50.62
2019-03-30T07:39:30.619Z,50.62
2019-03-30T07:40:33.753Z,50.62
2019-03-30T07:41:30.596Z,50.62
2019-03-30T07:42:30.619Z,50.62
2019-03-30T07:43:30.613Z,50.62
2019-03-30T07:44:30.571Z,50.62
2019-03-30T07:45:30.552Z,50.62
2019-03-30T07:46:30.540Z,50.62
2019-03-30T07:47:30.547Z,50.62
2019-03-30T07:48:30.523Z,50.62
2019-03-30T07:49:30.513Z,50.62
2019-03-30T07:50:30.494Z,50.62
2019-03-30T07:51:33.259Z,50.62
2019-03-30T07:52:30.491Z,50.62
2019-03-30T07:53:43.601Z,56.25
2019-03-30T07:54:31.451Z,50.62
2019-03-30T07:55:30.448Z,50.62
2019-03-30T07:56:30.434Z,50.62
2019-03-30T07:57:30.445Z,50.62
2019-03-30T07:58:30.404Z,50.62
2019-03-30T07:59:30.395Z,50.62
2019-03-30T08:00:31.059Z,56.25
2019-03-30T08:01:30.381Z,56.25
2019-03-30T08:02:30.400Z,56.25
2019-03-30T08:03:30.392Z,56.25
2019-03-30T08:04:30.341Z,56.25
2019-03-30T08:05:30.329Z,50.62
2019-03-30T08:06:30.322Z,50.62
2019-03-30T08:07:30.353Z,50.62
2019-03-30T08:08:30.295Z,50.62
2019-03-30T08:09:30.284Z,50.62
2019-03-30T08:10:30.283Z,50.62
2019-03-30T08:11:30.274Z,50.62
2019-03-30T08:12:30.263Z,50.62
2019-03-30T08:13:30.284Z,50.62
2019-03-30T08:14:30.237Z,50.62
2019-03-30T08:15:30.230Z,50.62
2019-03-30T08:16:30.206Z,50.62
2019-03-30T08:17:30.219Z,50.62
2019-03-30T08:18:30.185Z,50.62
2019-03-30T08:19:30.214Z,50.62
2019-03-30T08:20:30.171Z,50.62
2019-03-30T08:21:30.156Z,50.62
2019-03-30T08:22:30.197Z,50.62
2019-03-30T08:23:40.264Z,50.62
2019-03-30T08:24:31.117Z,50.62
2019-03-30T08:25:30.113Z,50.62
2019-03-30T08:26:30.096Z,50.62
2019-03-30T08:27:30.093Z,50.62
2019-03-30T08:28:30.096Z,50.62
2019-03-30T08:29:30.076Z,50.62
2019-03-30T08:30:30.056Z,50.62
2019-03-30T08:31:30.060Z,50.62
2019-03-30T08:32:30.053Z,50.62
2019-03-30T08:33:30.022Z,50.62
2019-03-30T08:34:30.024Z,50.62
2019-03-30T08:35:30.003Z,50.62
2019-03-30T08:36:29.988Z,50.62
2019-03-30T08:37:30.200Z,50.62
2019-03-30T08:38:29.983Z,50.62
2019-03-30T08:39:29.954Z,50.62
2019-03-30T08:40:29.948Z,50.62
2019-03-30T08:41:29.950Z,50.62
2019-03-30T08:42:29.932Z,50.62
2019-03-30T08:43:29.941Z,50.62
2019-03-30T08:44:29.910Z,50.62
2019-03-30T08:45:30.109Z,50.62
2019-03-30T08:46:29.894Z,50.62
2019-03-30T08:47:29.873Z,50.62
2019-03-30T08:48:29.861Z,50.62
2019-03-30T08:49:29.846Z,50.62
2019-03-30T08:50:29.839Z,50.62
2019-03-30T08:51:29.861Z,50.62
2019-03-30T08:52:29.830Z,50.62
2019-03-30T08:53:29.811Z,50.62
2019-03-30T08:54:29.798Z,50.62
2019-03-30T08:55:29.805Z,50.62
2019-03-30T08:56:29.794Z,50.62
2019-03-30T08:57:29.796Z,50.62
2019-03-30T08:58:29.758Z,50.62
2019-03-30T08:59:29.776Z,50.62
2019-03-30T09:00:29.737Z,50.62
2019-03-30T09:01:29.725Z,50.62
2019-03-30T09:02:29.747Z,50.62
2019-03-30T09:03:29.729Z,50.62
2019-03-30T09:04:29.691Z,50.62
2019-03-30T09:05:29.680Z,50.62
2019-03-30T09:06:29.747Z,50.62
2019-03-30T09:07:29.680Z,50.62
2019-03-30T09:08:29.664Z,50.62
2019-03-30T09:09:29.641Z,50.62
2019-03-30T09:10:29.682Z,50.62
2019-03-30T09:11:29.621Z,50.62
2019-03-30T09:12:29.607Z,45.00
2019-03-30T09:13:29.618Z,45.00
2019-03-30T09:14:29.591Z,45.00
2019-03-30T09:15:29.580Z,45.00
2019-03-30T09:16:29.561Z,45.00
2019-03-30T09:17:29.564Z,45.00
2019-03-30T09:18:29.565Z,45.00
2019-03-30T09:19:29.547Z,45.00
2019-03-30T09:20:29.522Z,45.00
2019-03-30T09:21:29.512Z,45.00
2019-03-30T09:22:29.502Z,45.00
2019-03-30T09:23:29.509Z,45.00
2019-03-30T09:24:29.497Z,45.00
2019-03-30T09:25:29.472Z,45.00
2019-03-30T09:26:29.458Z,45.00
2019-03-30T09:27:29.454Z,45.00
2019-03-30T09:28:29.469Z,45.00
2019-03-30T09:29:29.421Z,45.00
2019-03-30T09:30:29.409Z,45.00
2019-03-30T09:31:29.419Z,45.00
2019-03-30T09:32:29.391Z,45.00
2019-03-30T09:33:29.406Z,45.00
2019-03-30T09:34:29.370Z,45.00
2019-03-30T09:35:29.383Z,45.00
2019-03-30T09:36:29.356Z,45.00
2019-03-30T09:37:29.332Z,45.00
2019-03-30T09:38:29.358Z,45.00
2019-03-30T09:39:29.335Z,45.00
2019-03-30T09:40:29.312Z,45.00
2019-03-30T09:41:29.290Z,45.00
2019-03-30T09:42:29.306Z,45.00
2019-03-30T09:43:29.301Z,45.00
2019-03-30T09:44:29.281Z,45.00
2019-03-30T09:45:29.250Z,45.00
2019-03-30T09:46:29.233Z,45.00
2019-03-30T09:47:29.264Z,45.00
2019-03-30T09:48:29.213Z,45.00
2019-03-30T09:49:29.222Z,45.00
2019-03-30T09:50:29.233Z,45.00
2019-03-30T09:51:30.201Z,45.00
2019-03-30T09:52:29.178Z,45.00
2019-03-30T09:53:29.153Z,45.00
2019-03-30T09:54:29.141Z,45.00
2019-03-30T09:55:29.165Z,45.00
2019-03-30T09:56:29.131Z,45.00
2019-03-30T09:57:29.107Z,45.00
2019-03-30T09:58:29.123Z,45.00
2019-03-30T09:59:29.103Z,45.00
2019-03-30T10:00:29.143Z,45.00
2019-03-30T10:01:29.062Z,45.00
2019-03-30T10:02:29.053Z,45.00
2019-03-30T10:03:29.100Z,45.00
2019-03-30T10:04:29.029Z,45.00
2019-03-30T10:05:29.019Z,45.00
2019-03-30T10:06:34.448Z,45.00
2019-03-30T10:07:30.001Z,45.00
2019-03-30T10:08:28.990Z,45.00
2019-03-30T10:09:28.975Z,45.00
2019-03-30T10:10:28.978Z,45.00
2019-03-30T10:11:28.974Z,45.00
2019-03-30T10:12:28.969Z,45.00
2019-03-30T10:13:28.927Z,45.00
2019-03-30T10:14:28.919Z,45.00
2019-03-30T10:15:28.906Z,45.00
2019-03-30T10:16:28.920Z,45.00
2019-03-30T10:17:28.887Z,45.00
2019-03-30T10:18:28.902Z,45.00
2019-03-30T10:19:28.873Z,45.00
2019-03-30T10:20:28.857Z,45.00
2019-03-30T10:21:28.877Z,45.00
2019-03-30T10:22:28.835Z,45.00
2019-03-30T10:23:28.840Z,45.00
2019-03-30T10:24:38.149Z,45.00
2019-03-30T10:25:29.795Z,45.00
2019-03-30T10:26:28.832Z,45.00
2019-03-30T10:27:28.791Z,45.00
2019-03-30T10:28:28.780Z,45.00
2019-03-30T10:29:28.764Z,45.00
2019-03-30T10:30:28.743Z,45.00
2019-03-30T10:31:28.766Z,45.00
2019-03-30T10:32:28.732Z,45.00
2019-03-30T10:33:28.718Z,45.00
2019-03-30T10:34:28.706Z,45.00
2019-03-30T10:35:28.701Z,45.00
2019-03-30T10:36:28.702Z,45.00
2019-03-30T10:37:28.679Z,45.00
2019-03-30T10:38:28.659Z,45.00
2019-03-30T10:39:28.649Z,45.00
2019-03-30T10:40:28.634Z,45.00
2019-03-30T10:41:28.658Z,45.00
2019-03-30T10:42:28.621Z,45.00
2019-03-30T10:43:28.622Z,45.00
2019-03-30T10:44:28.629Z,45.00
2019-03-30T10:45:28.601Z,45.00
2019-03-30T10:46:28.595Z,45.00
2019-03-30T10:47:28.556Z,45.00
2019-03-30T10:48:28.553Z,45.00
2019-03-30T10:49:28.535Z,45.00
2019-03-30T10:50:28.525Z,45.00
2019-03-30T10:51:28.559Z,45.00
2019-03-30T10:52:28.508Z,45.00
2019-03-30T10:53:28.519Z,45.00
2019-03-30T10:54:28.486Z,45.00
2019-03-30T10:55:28.475Z,45.00
2019-03-30T10:56:28.465Z,45.00
2019-03-30T10:57:28.471Z,45.00
2019-03-30T10:58:28.437Z,45.00
2019-03-30T10:59:28.428Z,45.00
2019-03-30T11:00:28.414Z,50.62
2019-03-30T11:01:28.419Z,50.62
2019-03-30T11:02:28.430Z,45.00
2019-03-30T11:03:28.389Z,45.00
2019-03-30T11:04:28.414Z,45.00
2019-03-30T11:05:28.369Z,45.00
2019-03-30T11:06:28.385Z,45.00
2019-03-30T11:07:28.348Z,45.00
2019-03-30T11:08:28.329Z,45.00
2019-03-30T11:09:28.332Z,45.00
2019-03-30T11:10:28.305Z,50.62
2019-03-30T11:11:28.334Z,45.00
2019-03-30T11:12:28.284Z,50.62
2019-03-30T11:13:28.273Z,39.38
2019-03-30T11:14:28.276Z,39.38
2019-03-30T11:15:28.255Z,39.38
2019-03-30T11:16:28.239Z,39.38
2019-03-30T11:17:28.248Z,33.75
2019-03-30T11:18:28.217Z,33.75
2019-03-30T11:19:28.206Z,33.75
2019-03-30T11:20:28.201Z,39.38
2019-03-30T11:21:28.218Z,39.38
2019-03-30T11:22:28.176Z,39.38
2019-03-30T11:23:28.176Z,39.38
2019-03-30T11:24:28.189Z,50.62
2019-03-30T11:25:28.142Z,50.62
2019-03-30T11:26:28.147Z,50.62
2019-03-30T11:27:28.119Z,50.62
2019-03-30T11:28:28.106Z,50.62
2019-03-30T11:29:28.099Z,50.62
2019-03-30T11:30:28.108Z,50.62
2019-03-30T11:31:28.081Z,50.62
2019-03-30T11:32:28.092Z,50.62
2019-03-30T11:33:28.058Z,50.62
2019-03-30T11:34:28.051Z,39.38
2019-03-30T11:35:28.060Z,39.38
2019-03-30T11:36:28.046Z,45.00
2019-03-30T11:37:28.054Z,45.00
2019-03-30T11:38:28.020Z,50.62
2019-03-30T11:39:28.012Z,50.62
2019-03-30T11:40:27.985Z,50.62
2019-03-30T11:41:27.977Z,50.62
2019-03-30T11:42:27.951Z,50.62
2019-03-30T11:43:27.974Z,50.62
2019-03-30T11:44:28.720Z,50.62
2019-03-30T11:45:27.938Z,50.62
2019-03-30T11:46:27.907Z,50.62
2019-03-30T11:47:27.925Z,50.62
2019-03-30T11:48:27.889Z,50.62
2019-03-30T11:49:27.875Z,50.62
2019-03-30T11:50:27.863Z,50.62
2019-03-30T11:51:27.856Z,50.62
2019-03-30T11:52:27.869Z,50.62
2019-03-30T11:53:27.834Z,50.62
2019-03-30T11:54:27.844Z,50.62
2019-03-30T11:55:27.810Z,50.62
2019-03-30T11:56:27.804Z,50.62
2019-03-30T11:57:27.813Z,50.62
2019-03-30T11:58:27.778Z,50.62
2019-03-30T11:59:27.800Z,50.62
2019-03-30T12:00:27.754Z,50.62
2019-03-30T12:01:27.744Z,50.62
2019-03-30T12:02:28.537Z,56.25
2019-03-30T12:03:27.722Z,56.25
2019-03-30T12:04:27.710Z,56.25
2019-03-30T12:05:27.733Z,61.88
2019-03-30T12:06:27.700Z,61.88
2019-03-30T12:07:27.679Z,61.88
2019-03-30T12:08:27.707Z,61.88
2019-03-30T12:09:27.682Z,61.88
2019-03-30T12:10:27.648Z,61.88
2019-03-30T12:11:27.702Z,67.50
2019-03-30T12:12:27.622Z,67.50
2019-03-30T12:13:27.624Z,67.50
2019-03-30T12:14:27.605Z,67.50
2019-03-30T12:15:27.602Z,61.88
2019-03-30T12:16:27.584Z,67.50
2019-03-30T12:17:27.593Z,61.88
2019-03-30T12:18:27.555Z,61.88
2019-03-30T12:19:27.542Z,61.88
2019-03-30T12:20:27.554Z,61.88
2019-03-30T12:21:27.526Z,61.88
2019-03-30T12:22:27.552Z,61.88
2019-03-30T12:23:27.500Z,61.88
2019-03-30T12:24:27.490Z,61.88
2019-03-30T12:25:35.371Z,56.25
2019-03-30T12:26:28.484Z,56.25
2019-03-30T12:27:27.478Z,56.25
2019-03-30T12:28:27.449Z,56.25
2019-03-30T12:29:27.443Z,56.25
2019-03-30T12:30:27.516Z,61.88
2019-03-30T12:31:27.417Z,67.50
2019-03-30T12:32:27.462Z,67.50
2019-03-30T12:33:27.395Z,67.50
2019-03-30T12:34:27.408Z,67.50
2019-03-30T12:35:27.412Z,67.50
2019-03-30T12:36:27.364Z,67.50
2019-03-30T12:37:27.351Z,67.50
2019-03-30T12:38:27.360Z,73.12
2019-03-30T12:39:27.327Z,73.12
2019-03-30T12:40:27.318Z,73.12
2019-03-30T12:41:27.325Z,67.50
2019-03-30T12:42:27.306Z,67.50
2019-03-30T12:43:27.307Z,67.50
2019-03-30T12:44:27.274Z,67.50
2019-03-30T12:45:27.272Z,61.88
2019-03-30T12:46:27.277Z,67.50
2019-03-30T12:47:27.256Z,67.50
2019-03-30T12:48:27.231Z,61.88
2019-03-30T12:49:27.241Z,67.50
2019-03-30T12:50:27.211Z,67.50
2019-03-30T12:51:27.259Z,61.88
2019-03-30T12:52:27.185Z,61.88
2019-03-30T12:53:27.201Z,56.25
2019-03-30T12:54:27.182Z,61.88
2019-03-30T12:55:27.155Z,61.88
2019-03-30T12:56:27.144Z,61.88
2019-03-30T12:57:27.153Z,61.88
2019-03-30T12:58:27.279Z,61.88
2019-03-30T12:59:27.112Z,61.88
2019-03-30T13:00:27.107Z,61.88
2019-03-30T13:01:27.094Z,61.88
2019-03-30T13:02:27.083Z,61.88
2019-03-30T13:03:27.078Z,61.88
2019-03-30T13:04:27.075Z,61.88